Orr, North Dakota
Current Conditions -  °F | °C
As of 5:21 AM on Sunday 23 Nov 2014 (Local Time) from KRDR Reporting Station
Light Rain Light Rain  
Wind Chill: 29°   Ceiling: Unl
Heat Index: 36°   Visibility: 10mi
Dew Point: 34°   Wind: 8mph
Humidity: 93%   Direction: 290°WNW
Pressure: 29.36"   Gusts: NA
Location:  48.1078°N, 97.7089°W
Report Text: KRDR 231121Z AUTO 29007KT 10SM -RA FEW032 02/01 A2936 RMK AO2 UPB1115 CIG 050 RWY17
Loading
Personal Weather Stations






























Interactive Weather Map New forecast layout! Learn more

10-Day Weather Forecast

Advertisements
Track Severe Weather on mobile